• Join FlightAware (Why Join?)
  • Login
  • US Flag 
02:43AM EDT


 

Airport Tracker/Info


-or-


 

Live Flight TrackerFlight Track Log ✈ CTL22 ✈ 29-Apr-2013 ✈ KBKL - KGRR

Flight Track Log - Related Links

Times and Time Zones

All times are in EDT time to prevent confusion due to time zone crossing. See the CTL22 flight status page for this flight to view local times or setup timezone preferences in your user account.

Time Position Orientation Groundspeed Altitude Reporting Facility
EDT Latitude Longitude Course Direction KTS MPH feet Rate Location/Type
09:55PM 42.1992 -83.1983 297° West 174 200 6,000  Level Cleveland Center
09:57PM 42.2270 -83.2515 305° West  Level FlightAware Approximate
09:57PM 42.2225 -83.2667 305° West 174 200 6,000  Level Cleveland Center
09:59PM 42.2592 -83.3886 292° West 172 198 6,000  Level Cleveland Center
09:59PM 42.2744 -83.4456 290° West 175 201 6,000  Level Cleveland Center
10:01PM 42.2069 -83.5590 297° West  Level Estimated
10:01PM 42.2939 -83.5025 295° West 175 201 6,000  Level Cleveland Center
10:02PM 42.3131 -83.5653 292° West 172 198 6,000  Level Cleveland Center
10:02PM 42.3261 -83.6219 287° West 171 197 6,100  Climbing Cleveland Center
10:03PM 42.3436 -83.6736 295° West 175 201 6,000  Descending Cleveland Center
10:04PM 42.3647 -83.7419 293° West 174 200 6,100  Climbing Cleveland Center
10:06PM 42.3919 -83.8136 297° West 171 197 6,000  Descending Cleveland Center
10:08PM 42.4389 -83.9481 295° West 174 200 6,100  Climbing Chicago Center
10:09PM 42.4567 -84.0089 292° West 174 200 6,100 -60 Level Chicago Center
10:10PM 42.4739 -84.0697 291° West 173 199 6,000  Descending Chicago Center
10:11PM 42.4911 -84.1303 291° West 172 198 6,100  Climbing Chicago Center
10:12PM 42.5092 -84.1903 292° West 173 199 6,100  Level Chicago Center
10:13PM 42.5250 -84.2506 290° West 171 197 6,100  Level Chicago Center
10:14PM 42.5433 -84.3106 293° West 172 198 6,100  Level Chicago Center
10:15PM 42.5614 -84.3675 293° West 167 192 6,100  Level Chicago Center
10:16PM 42.5825 -84.4236 297° West 167 192 6,100  Level Chicago Center
10:17PM 42.6050 -84.4922 294° West 166 191 6,100  Level Chicago Center
10:18PM 42.6217 -84.5503 291° West 166 191 6,100  Level Chicago Center
10:19PM 42.6417 -84.6061 296° West 165 190 6,100  Level Chicago Center
10:20PM 42.6600 -84.6617 294° West 163 188 6,100  Level Chicago Center
10:21PM 42.6736 -84.7225 287° West 166 191 6,100  Level Chicago Center
10:22PM 42.6897 -84.7808 291° West 166 191 6,100  Level Chicago Center
10:23PM 42.7053 -84.8397 290° West 166 191 6,100  Level Chicago Center
10:24PM 42.7217 -84.8986 291° West 168 193 6,100  Level Chicago Center
10:25PM 42.7369 -84.9572 290° West 166 191 6,100  Level Chicago Center
10:26PM 42.7528 -85.0156 290° West 166 191 6,100  Level Chicago Center
10:27PM 42.7700 -85.0875 288° West 166 191 6,100  Level Chicago Center
10:28PM 42.7853 -85.1467 289° West 166 191 6,100 -300 Level Chicago Center
10:29PM 42.8006 -85.2078 289° West 169 194 5,600 -840 Descending Chicago Center
10:30PM 42.8197 -85.2772 291° West 188 216 4,400 -1,020 Descending Chicago Center
10:31PM 42.8414 -85.3511 292° West 205 236 3,600 -1,020 Descending Chicago Center
10:32PM 42.8631 -85.4214 293° West 205 236 2,400 -1,200 Descending Chicago Center
10:33PM 42.8792 -85.4856 289° West 193 222 1,200 -720 Descending Chicago Center
10:35PM 42.8839 -85.5311 278° West 175 201 1,000 -240 Descending Chicago Center
10:36PM 42.8808 -85.5228 270° West  Level Estimated
10:43PM 42.8808 -85.5228 270° West  Level Estimated